ADDS METAR Data INFO
IDs: Format: Raw Decoded Include TAF

Data at: 2240 UTC 11 Dec 2017

KMSO 112153Z 23003KT 4SM BR BKN006 M07/M08 A3056 RMK AO2 SLP402 T10671078
KMSO 112053Z 00000KT 4SM BR BKN006 M06/M07 A3059 RMK AO2 SLP412 T10611072 58021
KMSO 112040Z 00000KT 3SM BR BKN006 M06/M08 A3060 RMK AO2 T10611078
KMSO 112031Z 00000KT 1 1/2SM BR BKN006 M06/M08 A3060 RMK AO2 T10611078
KMSO 112025Z 23003KT 1SM BR BKN006 M06/M08 A3060 RMK AO2 T10611078
KMSO 112017Z 00000KT 3/4SM BR BKN004 OVC008 M07/M08 A3061 RMK AO2 T10671078
KMSO 112010Z 00000KT 1SM BR OVC004 M07/M08 A3061 RMK AO2 T10671083
KMSO 112003Z 00000KT 1 3/4SM BR OVC004 M07/M08 A3061 RMK AO2 T10721083
KMSO 111953Z 00000KT 2SM BR OVC004 M07/M08 A3062 RMK AO2 SLP423 T10721083
KMSO 111933Z 00000KT 2 1/2SM BR OVC004 M07/M08 A3063 RMK AO2 T10721083
KMSO 111911Z 17003KT 2 1/2SM BR OVC005 M07/M08 A3063 RMK AO2 T10721083
KMSO 111853Z 14003KT 2SM BR OVC004 M07/M08 A3064 RMK AO2 SLP430 T10721083
KMSO 111834Z 00000KT 2SM BR OVC004 M08/M09 A3065 RMK AO2 T10781089
KMSO 111753Z 20004KT 1 1/2SM BR OVC003 M08/M09 A3066 RMK AO2 SLP437 60001 T10781089 11078 21083 51005
KMSO 111722Z 00000KT 1 1/2SM BR OVC004 M08/M09 A3066 RMK AO2 T10831094
KMSO 111653Z 00000KT 2SM BR OVC004 M08/M09 A3065 RMK AO2 SLP435 T10831094
KMSO 111640Z 00000KT 1 3/4SM BR OVC004 M08/M09 A3065 RMK AO2 T10831094
KMSO 111553Z 00000KT 3SM BR OVC004 M08/M09 A3065 RMK AO2 SLP434 T10831094
KMSO 111529Z 19003KT 4SM BR OVC004 M08/M09 A3064 RMK AO2 T10831094
KMSO 111453Z 00000KT 6SM BR OVC005 M08/M10 A3064 RMK AO2 SLP432 60001 T10831100 53003
KMSO 111414Z 00000KT 4SM BR OVC006 M08/M10 A3064 RMK AO2 T10831100
KMSO 111404Z 25003KT 1 1/2SM BR OVC006 M08/M10 A3063 RMK AO2 T10831100
KMSO 111353Z 23003KT 5SM BR BKN006 OVC010 M08/M10 A3063 RMK AO2 SNB20E34 SLP428 P0001 T10831100
KMSO 111348Z 25003KT 3SM BR BKN006 OVC010 M08/M10 A3063 RMK AO2 SNB20E34 P0001
KMSO 111345Z 25003KT 1 1/2SM BR BKN006 OVC010 M08/M10 A3063 RMK AO2 SNB20E34 P0001 T10831100
KMSO 111340Z 25004KT 1SM BR BKN005 OVC010 M08/M10 A3063 RMK AO2 SNB20E34 P0001 T10831100
KMSO 111325Z 26004KT 1/2SM -SN FZFG OVC005 M08/M10 A3063 RMK AO2 SNB20 P0000 T10831100
KMSO 111315Z 22003KT 3/4SM BR OVC003 M08/M09 A3063 RMK AO2 T10831094
KMSO 111308Z 21004KT 1 1/4SM BR OVC003 M08/M09 A3063 RMK AO2 T10831094
KMSO 111303Z 19003KT 2SM BR OVC003 M08/M09 A3063 RMK AO2 T10781089
KMSO 111257Z 00000KT 1 1/4SM BR OVC003 M08/M09 A3063 RMK AO2 T10781089
KMSO 111253Z 00000KT 3/4SM BR VV003 M08/M09 A3063 RMK AO2 SLP426 T10781094
KMSO 111153Z AUTO 16003KT 3/4SM BR VV003 M08/M09 A3063 RMK AO2 SLP427 I1000 I6000 T10831089 11078 21083 55000
KMSO 111101Z AUTO 00000KT 3/4SM BR VV003 M08/M09 A3063 RMK AO2 T10831089
KMSO 111053Z AUTO 17003KT 1SM BR OVC002 M08/M09 A3063 RMK AO2 SLP424 I1000 T10831089
KMSO 111007Z AUTO 22003KT 1SM BR OVC002 M08/M09 A3063 RMK AO2 T10831094
KMSO 111001Z AUTO 00000KT 1 1/2SM BR OVC002 M08/M09 A3063 RMK AO2 T10781089
KMSO 110953Z AUTO 00000KT 1 1/4SM BR OVC002 M08/M09 A3063 RMK AO2 SLP426 I1000 T10831089
KMSO 110903Z AUTO 24003KT 1 3/4SM BR OVC002 M08/M09 A3063 RMK AO2 T10831089
KMSO 110853Z AUTO 00000KT 2SM BR OVC002 M08/M09 A3063 RMK AO2 SLP428 I1000 I3000 T10831089 58000
KMSO 110839Z AUTO 00000KT 2 1/2SM BR OVC002 M08/M09 A3063 RMK AO2 T10831089
KMSO 110753Z AUTO 00000KT 4SM BR OVC004 M08/M09 A3063 RMK AO2 SLP426 T10831089
KMSO 110703Z AUTO 18003KT 5SM BR OVC004 M08/M09 A3064 RMK AO2 T10781089
KMSO 110653Z AUTO 00000KT 5SM BR OVC005 M08/M09 A3064 RMK AO2 SLP429 T10831089 410671089
KMSO 110553Z AUTO 13004KT 6SM BR OVC007 M08/M09 A3063 RMK AO2 CIG 004V009 SLP428 I1000 I6000 T10831094 11072 21089 51007
KMSO 110453Z AUTO 11004KT 6SM BR OVC006 M08/M09 A3063 RMK AO2 SLP426 T10781089
KMSO 110353Z 12005KT 6SM BR BKN006 M08/M09 A3062 RMK AO2 SLP424 T10831094
KMSO 110253Z 00000KT 5SM BR BKN007 M09/M10 A3061 RMK AO2 SLP420 I1000 I3000 T10891100 53006
KMSO 110250Z 00000KT 5SM BR SCT007 M09/M10 A3061 RMK AO2 I1000
KMSO 110153Z 00000KT 5SM BR CLR M08/M09 A3059 RMK AO2 SLP411 T10781094
KMSO 110053Z 26004KT 6SM BR SCT006 M08/M09 A3059 RMK AO2 SLP413 T10831094
KMSO 102353Z 00000KT 4SM BR OVC006 M07/M08 A3059 RMK AO2 SLP410 T10721083 11067 21072 56005
KMSO 102253Z 00000KT 4SM BR OVC006 M07/M08 A3059 RMK AO2 SLP409 T10671078
KMSO 102153Z 00000KT 4SM BR OVC006 M07/M08 A3060 RMK AO2 SLP413 T10671083
KMSO 102053Z 17004KT 4SM BR OVC006 M07/M08 A3060 RMK AO2 SLP416 T10721083 58026
KMSO 102004Z 00000KT 3SM BR OVC006 M07/M08 A3062 RMK AO2 T10721083
KMSO 101953Z 00000KT 1 1/2SM BR OVC006 M07/M08 A3063 RMK AO2 SLP424 T10671083
KMSO 101948Z 00000KT 1 3/4SM BR OVC006 M07/M08 A3063 RMK AO2
KMSO 101853Z 00000KT 4SM BR OVC005 M07/M08 A3066 RMK AO2 SLP435 T10671083
KMSO 101753Z 00000KT 4SM BR OVC005 M07/M08 A3069 RMK AO2 SLP443 60000 T10721083 11072 21078 53009
KMSO 101744Z 34004KT 4SM BR OVC005 M07/M09 A3068 RMK AO2 T10721089
KMSO 101713Z 26003KT 3SM BR OVC004 M08/M09 A3068 RMK AO2 T10781089
KMSO 101653Z 20004KT 3SM BR OVC005 M08/M08 A3067 RMK AO2 SLP438 T10781083
KMSO 101621Z 15003KT 4SM BR OVC005 M07/M08 A3065 RMK AO2 T10721083
KMSO 101553Z 20004KT 5SM BR OVC004 M08/M09 A3065 RMK AO2 SLP434 T10781089
KMSO 101453Z 00000KT 4SM BR OVC004 M07/M09 A3066 RMK AO2 SLP433 60000 T10721089 55002
KMSO 101429Z 18003KT 4SM BR OVC004 M07/M08 A3066 RMK AO2 CIG 003V007 T10721083
KMSO 101412Z 19004KT 4SM BR OVC005 M07/M08 A3066 RMK AO2 CIG 003V007 T10721083
KMSO 101353Z 12005KT 3SM BR OVC004 M07/M08 A3065 RMK AO2 SNB36E50 SLP431 P0000 T10721083
KMSO 101349Z 12003KT 2SM -SN BR OVC004 M07/M08 A3065 RMK AO2 SNB36 P0000
KMSO 101347Z 00000KT 1 1/4SM -SN BR OVC003 M07/M08 A3065 RMK AO2 SNB36 P0000
KMSO 101344Z 00000KT 3/4SM -SN BR OVC003 M07/M08 A3065 RMK AO2 SNB36 P0000 T10721083
KMSO 101336Z 23003KT 1SM -SN BR OVC003 M07/M08 A3065 RMK AO2 SNB36 P0000 T10721083
KMSO 101334Z 22003KT 1 1/2SM BR OVC003 M07/M08 A3066 RMK AO2 T10721083
KMSO 101253Z AUTO 15003KT 3SM BR OVC003 M07/M08 A3065 RMK AO2 SLP430 T10721083
KMSO 101225Z AUTO 13005KT 4SM BR OVC003 M07/M08 A3066 RMK AO2 T10721083
KMSO 101153Z AUTO 17003KT 2 1/2SM BR OVC003 M07/M08 A3066 RMK AO2 SLP435 I6000 T10721083 11067 21072 50000
KMSO 101151Z AUTO 15003KT 2 1/2SM BR OVC003 M07/M08 A3066 RMK AO2
KMSO 101122Z AUTO 30003KT 3SM BR OVC003 M07/M08 A3067 RMK AO2 T10721083
KMSO 101115Z AUTO 29004KT 2 1/2SM BR OVC003 M07/M08 A3067 RMK AO2 T10721078
KMSO 101053Z AUTO 23004KT 3SM BR OVC003 M07/M08 A3067 RMK AO2 SLP437 T10721083
KMSO 101046Z AUTO 23003KT 3SM BR OVC003 M07/M08 A3067 RMK AO2 T10721078